createdAt,value
2017-08-22T00:00:39.120Z,92.24
2017-08-22T00:01:38.951Z,92.58
2017-08-22T00:02:39.775Z,92.31
2017-08-22T00:03:38.506Z,93.60
2017-08-22T00:04:38.939Z,92.66
2017-08-22T00:05:38.940Z,93.21
2017-08-22T00:06:38.993Z,93.52
2017-08-22T00:07:39.045Z,92.30
2017-08-22T00:08:38.466Z,91.59
2017-08-22T00:09:38.532Z,91.59
2017-08-22T00:10:38.487Z,93.02
2017-08-22T00:11:38.616Z,92.50
2017-08-22T00:12:38.546Z,92.00
2017-08-22T00:13:38.550Z,91.96
2017-08-22T00:14:38.557Z,90.50
2017-08-22T00:15:38.588Z,90.48
2017-08-22T00:16:38.841Z,92.15
2017-08-22T00:17:38.596Z,91.71
2017-08-22T00:18:38.954Z,92.13
2017-08-22T00:19:38.991Z,93.02
2017-08-22T00:20:38.958Z,92.60
2017-08-22T00:21:39.005Z,92.67
2017-08-22T00:22:39.080Z,93.76
2017-08-22T00:23:38.967Z,92.94
2017-08-22T00:24:38.953Z,92.78
2017-08-22T00:25:38.996Z,92.37
2017-08-22T00:26:38.529Z,93.18
2017-08-22T00:27:38.677Z,92.83
2017-08-22T00:28:38.529Z,93.02
2017-08-22T00:29:38.565Z,93.01
2017-08-22T00:30:38.627Z,93.54
2017-08-22T00:31:38.554Z,93.04
2017-08-22T00:32:38.583Z,92.89
2017-08-22T00:33:38.623Z,92.55
2017-08-22T00:34:38.851Z,93.02
2017-08-22T00:35:38.606Z,92.90
2017-08-22T00:36:39.027Z,93.21
2017-08-22T00:37:38.976Z,92.52
2017-08-22T00:38:39.029Z,93.40
2017-08-22T00:39:39.082Z,93.48
2017-08-22T00:40:39.015Z,92.17
2017-08-22T00:41:39.053Z,92.49
2017-08-22T00:42:38.982Z,92.89
2017-08-22T00:43:39.035Z,93.06
2017-08-22T00:44:39.272Z,93.86
2017-08-22T00:45:38.604Z,92.76
2017-08-22T00:46:38.634Z,92.75
2017-08-22T00:47:38.681Z,93.04
2017-08-22T00:48:38.609Z,92.85
2017-08-22T00:49:38.653Z,93.15
2017-08-22T00:50:38.652Z,93.29
2017-08-22T00:51:38.674Z,93.55
2017-08-22T00:52:39.094Z,92.99
2017-08-22T00:53:39.045Z,93.04
2017-08-22T00:54:44.224Z,93.39
2017-08-22T00:55:38.645Z,94.11
2017-08-22T00:56:39.075Z,94.73
2017-08-22T00:57:39.032Z,93.16
2017-08-22T00:58:39.060Z,94.18
2017-08-22T00:59:39.102Z,91.76
2017-08-22T01:04:22.799Z,93.45
2017-08-22T01:04:23.414Z,93.73
2017-08-22T01:04:24.016Z,93.55
2017-08-22T01:04:24.628Z,93.35
2017-08-22T01:04:38.669Z,93.30
2017-08-22T01:08:22.461Z,92.22
2017-08-22T01:08:23.473Z,93.91
2017-08-22T01:08:24.086Z,92.74
2017-08-22T01:08:38.640Z,93.16
2017-08-22T01:11:46.470Z,93.81
2017-08-22T01:11:47.072Z,93.05
2017-08-22T01:11:47.686Z,93.20
2017-08-22T01:14:32.526Z,92.97
2017-08-22T01:14:33.133Z,92.79
2017-08-22T01:14:38.751Z,93.23
2017-08-22T01:17:47.601Z,94.02
2017-08-22T01:17:48.214Z,93.59
2017-08-22T01:17:48.817Z,91.88
2017-08-22T01:20:32.560Z,93.60
2017-08-22T01:20:33.589Z,93.11
2017-08-22T01:20:38.705Z,93.29
2017-08-22T01:23:48.425Z,93.64
2017-08-22T01:23:49.430Z,93.00
2017-08-22T01:23:50.045Z,94.34
2017-08-22T01:26:37.710Z,93.85
2017-08-22T01:26:38.722Z,93.82
2017-08-22T01:26:39.338Z,93.86
2017-08-22T01:29:49.620Z,93.36
2017-08-22T01:29:50.663Z,92.74
2017-08-22T01:29:51.271Z,93.35
2017-08-22T01:32:32.699Z,93.21
2017-08-22T01:32:33.323Z,94.19
2017-08-22T01:32:38.743Z,94.14
2017-08-22T01:35:49.572Z,94.13
2017-08-22T01:35:50.194Z,92.23
2017-08-22T01:35:50.800Z,92.33
2017-08-22T01:38:33.635Z,94.44
2017-08-22T01:38:34.643Z,94.39
2017-08-22T01:38:38.756Z,93.86
2017-08-22T01:41:44.570Z,93.85
2017-08-22T01:41:45.581Z,93.58
2017-08-22T01:41:46.190Z,94.39
2017-08-22T01:46:26.560Z,94.64
2017-08-22T01:46:27.676Z,94.65
2017-08-22T01:46:28.276Z,94.81
2017-08-22T01:46:28.890Z,93.26
2017-08-22T01:46:38.837Z,93.82
2017-08-22T01:50:06.563Z,94.15
2017-08-22T01:50:07.163Z,93.43
2017-08-22T01:50:07.777Z,94.19
2017-08-22T01:50:38.850Z,93.81
2017-08-22T01:53:48.567Z,93.30
2017-08-22T01:53:49.571Z,94.56
2017-08-22T01:53:50.186Z,93.99
2017-08-22T01:57:04.821Z,92.12
2017-08-22T01:57:05.445Z,91.52
2017-08-22T01:57:06.058Z,92.67
2017-08-22T01:59:44.431Z,91.86
2017-08-22T01:59:45.435Z,91.96
2017-08-22T01:59:46.047Z,93.08
2017-08-22T02:00:38.862Z,92.60
2017-08-22T02:01:39.299Z,92.85
2017-08-22T02:02:39.245Z,93.13
2017-08-22T02:03:39.277Z,92.34
2017-08-22T02:04:39.210Z,93.34
2017-08-22T02:05:39.231Z,94.72
2017-08-22T02:06:39.258Z,94.16
2017-08-22T02:07:39.294Z,94.02
2017-08-22T02:08:39.322Z,94.14
2017-08-22T02:09:39.351Z,92.66
2017-08-22T02:10:39.282Z,92.24
2017-08-22T02:11:38.837Z,91.34
2017-08-22T02:12:38.885Z,92.27
2017-08-22T02:13:38.910Z,94.36
2017-08-22T02:14:38.866Z,93.93
2017-08-22T02:15:38.901Z,93.75
2017-08-22T02:16:38.836Z,94.41
2017-08-22T02:17:38.881Z,94.05
2017-08-22T02:18:38.900Z,92.31
2017-08-22T02:19:38.940Z,93.66
2017-08-22T02:20:38.881Z,93.50
2017-08-22T02:21:39.314Z,93.70
2017-08-22T02:22:39.351Z,93.96
2017-08-22T02:23:39.281Z,93.86
2017-08-22T02:24:39.393Z,93.81
2017-08-22T02:25:39.356Z,94.29
2017-08-22T02:26:39.280Z,93.19
2017-08-22T02:27:39.310Z,94.09
2017-08-22T02:28:39.338Z,94.31
2017-08-22T02:29:39.376Z,93.65
2017-08-22T02:30:38.912Z,94.09
2017-08-22T02:31:38.956Z,93.39
2017-08-22T02:32:38.980Z,93.66
2017-08-22T02:33:38.921Z,93.86
2017-08-22T02:34:38.943Z,91.57
2017-08-22T02:35:38.988Z,92.13
2017-08-22T02:36:38.925Z,93.52
2017-08-22T02:37:39.353Z,93.43
2017-08-22T02:38:39.383Z,93.14
2017-08-22T02:39:39.411Z,93.72
2017-08-22T02:40:39.400Z,93.83
2017-08-22T02:41:39.346Z,94.38
2017-08-22T02:42:39.382Z,93.23
2017-08-22T02:43:39.421Z,94.27
2017-08-22T02:44:39.346Z,93.53
2017-08-22T02:45:39.413Z,94.16
2017-08-22T02:46:39.350Z,94.78
2017-08-22T02:47:38.976Z,94.50
2017-08-22T02:48:39.003Z,94.64
2017-08-22T02:49:38.952Z,94.79
2017-08-22T02:50:38.976Z,94.36
2017-08-22T02:51:39.018Z,94.81
2017-08-22T02:52:39.054Z,94.29
2017-08-22T02:53:38.981Z,94.17
2017-08-22T02:54:39.003Z,94.32
2017-08-22T02:55:39.439Z,94.20
2017-08-22T02:56:39.385Z,94.58
2017-08-22T02:57:39.436Z,94.73
2017-08-22T02:58:39.372Z,94.16
2017-08-22T02:59:39.415Z,95.16
2017-08-22T03:00:39.571Z,94.67
2017-08-22T03:01:39.418Z,94.49
2017-08-22T03:02:39.461Z,95.31
2017-08-22T03:03:39.521Z,95.24
2017-08-22T03:04:38.970Z,94.08
2017-08-22T03:05:39.078Z,94.84
2017-08-22T03:06:39.048Z,95.33
2017-08-22T03:07:39.003Z,94.77
2017-08-22T03:08:39.075Z,94.22
2017-08-22T03:09:39.092Z,94.87
2017-08-22T03:10:39.027Z,95.50
2017-08-22T03:11:39.076Z,95.45
2017-08-22T03:12:39.104Z,95.16
2017-08-22T03:13:39.053Z,95.70
2017-08-22T03:14:39.492Z,94.70
2017-08-22T03:15:39.424Z,94.34
2017-08-22T03:16:39.492Z,94.50
2017-08-22T03:17:39.436Z,93.61
2017-08-22T03:18:39.405Z,95.60
2017-08-22T03:19:39.464Z,94.93
2017-08-22T03:20:39.507Z,94.53
2017-08-22T03:21:39.453Z,95.48
2017-08-22T03:22:39.082Z,95.41
2017-08-22T03:23:39.118Z,93.82
2017-08-22T03:24:39.076Z,95.04
2017-08-22T03:25:39.095Z,94.16
2017-08-22T03:26:39.099Z,94.60
2017-08-22T03:27:39.082Z,94.97
2017-08-22T03:28:39.112Z,93.42
2017-08-22T03:29:39.085Z,94.00
2017-08-22T03:30:39.120Z,93.79
2017-08-22T03:31:39.540Z,94.33
2017-08-22T03:32:39.574Z,94.50
2017-08-22T03:33:39.499Z,93.26
2017-08-22T03:34:39.633Z,93.79
2017-08-22T03:35:39.485Z,93.94
2017-08-22T03:36:39.520Z,94.08
2017-08-22T03:37:39.506Z,94.56
2017-08-22T03:38:39.530Z,94.69
2017-08-22T03:39:39.556Z,93.58
2017-08-22T03:40:39.599Z,94.47
2017-08-22T03:41:39.126Z,94.28
2017-08-22T03:42:39.169Z,93.88
2017-08-22T03:43:39.109Z,94.66
2017-08-22T03:44:39.147Z,94.72
2017-08-22T03:45:39.087Z,95.48
2017-08-22T03:47:30.330Z,95.48
2017-08-22T03:49:03.930Z,95.68
2017-08-22T03:49:04.938Z,94.30
2017-08-22T03:49:05.547Z,94.18
2017-08-22T03:49:39.131Z,94.08
2017-08-22T03:50:39.565Z,94.19
2017-08-22T03:51:39.610Z,94.48
2017-08-22T03:52:39.540Z,95.00
2017-08-22T03:53:39.586Z,95.34
2017-08-22T03:54:39.733Z,94.92
2017-08-22T03:55:39.583Z,94.78
2017-08-22T03:56:39.522Z,94.15
2017-08-22T03:57:39.142Z,92.71
2017-08-22T03:58:39.170Z,93.36
2017-08-22T03:59:39.212Z,93.79
2017-08-22T04:00:39.159Z,94.42
2017-08-22T04:01:39.128Z,94.40
2017-08-22T04:02:39.153Z,95.35
2017-08-22T04:03:39.159Z,95.82
2017-08-22T04:04:39.209Z,95.82
2017-08-22T04:05:39.133Z,93.93
2017-08-22T04:06:39.577Z,94.75
2017-08-22T04:07:39.622Z,95.18
2017-08-22T04:08:39.647Z,95.78
2017-08-22T04:09:39.697Z,94.82
2017-08-22T04:10:39.551Z,95.39
2017-08-22T04:11:39.718Z,95.18
2017-08-22T04:12:39.648Z,94.65
2017-08-22T04:13:39.597Z,95.39
2017-08-22T04:14:39.639Z,95.21
2017-08-22T04:15:39.184Z,94.55
2017-08-22T04:16:39.225Z,94.75
2017-08-22T04:17:39.251Z,95.38
2017-08-22T04:18:39.211Z,95.81
2017-08-22T04:19:39.272Z,94.59
2017-08-22T04:20:39.234Z,94.81
2017-08-22T04:21:39.265Z,95.33
2017-08-22T04:22:39.207Z,95.77
2017-08-22T04:23:39.661Z,94.63
2017-08-22T04:24:39.735Z,94.54
2017-08-22T04:25:39.699Z,94.59
2017-08-22T04:26:39.774Z,94.44
2017-08-22T04:27:39.629Z,95.05
2017-08-22T04:28:39.813Z,94.24
2017-08-22T04:29:39.665Z,95.29
2017-08-22T04:30:39.670Z,95.34
2017-08-22T04:31:39.640Z,95.64
2017-08-22T04:32:39.649Z,95.05
2017-08-22T04:33:39.689Z,96.03
2017-08-22T04:34:39.318Z,95.01
2017-08-22T04:35:39.305Z,94.45
2017-08-22T04:36:39.323Z,93.55
2017-08-22T04:37:39.266Z,94.45
2017-08-22T04:38:39.299Z,94.32
2017-08-22T04:39:39.328Z,95.50
2017-08-22T04:40:39.277Z,94.13
2017-08-22T04:41:39.336Z,94.71
2017-08-22T04:42:39.306Z,93.66
2017-08-22T04:43:39.693Z,94.40
2017-08-22T04:44:39.734Z,94.74
2017-08-22T04:45:39.915Z,95.69
2017-08-22T04:46:39.731Z,93.68
2017-08-22T04:47:39.740Z,94.73
2017-08-22T04:48:40.839Z,93.54
2017-08-22T04:49:39.390Z,93.05
2017-08-22T04:50:39.682Z,93.35
2017-08-22T04:51:39.747Z,94.62
2017-08-22T04:52:39.320Z,93.76
2017-08-22T04:53:39.316Z,94.10
2017-08-22T04:54:39.412Z,93.14
2017-08-22T04:55:39.342Z,93.64
2017-08-22T04:56:39.358Z,94.03
2017-08-22T04:57:39.386Z,93.90
2017-08-22T04:58:39.396Z,93.77
2017-08-22T04:59:39.416Z,93.29
2017-08-22T05:00:39.365Z,93.44
2017-08-22T05:01:40.084Z,93.78
2017-08-22T05:02:39.829Z,93.89
2017-08-22T05:03:39.733Z,93.82
2017-08-22T05:04:39.750Z,93.22
2017-08-22T05:05:39.780Z,93.68
2017-08-22T05:06:39.812Z,93.09
2017-08-22T05:07:39.725Z,92.81
2017-08-22T05:08:39.781Z,92.27
2017-08-22T05:09:39.975Z,91.99
2017-08-22T05:10:39.400Z,93.36
2017-08-22T05:11:39.339Z,92.40
2017-08-22T05:12:39.388Z,92.53
2017-08-22T05:13:39.334Z,93.73
2017-08-22T05:14:39.473Z,93.76
2017-08-22T05:15:39.461Z,92.61
2017-08-22T05:16:39.352Z,93.50
2017-08-22T05:17:39.840Z,91.90
2017-08-22T05:18:39.837Z,92.13
2017-08-22T05:19:39.850Z,93.10
2017-08-22T05:20:39.878Z,91.05
2017-08-22T05:21:39.797Z,90.55
2017-08-22T05:22:39.951Z,90.68
2017-08-22T05:23:39.841Z,90.41
2017-08-22T05:24:39.868Z,91.15
2017-08-22T05:25:40.017Z,91.26
2017-08-22T05:26:39.822Z,91.87
2017-08-22T05:27:39.863Z,91.01
2017-08-22T05:28:39.397Z,91.45
2017-08-22T05:29:39.512Z,89.98
2017-08-22T05:30:39.447Z,91.16
2017-08-22T05:31:39.455Z,90.32
2017-08-22T05:32:39.465Z,91.18
2017-08-22T05:33:39.396Z,91.01
2017-08-22T05:34:39.536Z,92.13
2017-08-22T05:35:39.416Z,90.44
2017-08-22T05:36:39.867Z,90.22
2017-08-22T05:37:39.902Z,90.12
2017-08-22T05:38:39.895Z,90.42
2017-08-22T05:39:39.985Z,90.92
2017-08-22T05:40:39.963Z,89.24
2017-08-22T05:41:39.857Z,89.35
2017-08-22T05:42:39.875Z,90.15
2017-08-22T05:43:39.890Z,88.94
2017-08-22T05:44:42.937Z,90.71
2017-08-22T05:45:39.760Z,89.11
2017-08-22T05:46:40.121Z,90.62
2017-08-22T05:47:39.474Z,88.26
2017-08-22T05:48:39.630Z,88.87
2017-08-22T05:49:39.582Z,88.46
2017-08-22T05:50:39.547Z,88.12
2017-08-22T05:51:39.482Z,88.82
2017-08-22T05:52:39.530Z,87.58
2017-08-22T05:53:39.475Z,87.60
2017-08-22T05:54:40.127Z,89.60
2017-08-22T05:55:39.858Z,88.31
2017-08-22T05:56:39.907Z,88.31
2017-08-22T05:57:39.943Z,88.03
2017-08-22T05:58:39.955Z,88.88
2017-08-22T05:59:39.951Z,88.61
2017-08-22T06:00:39.954Z,88.08
2017-08-22T06:01:39.931Z,87.77
2017-08-22T06:02:39.936Z,88.88
2017-08-22T06:03:40.008Z,87.15
2017-08-22T06:04:39.481Z,87.36
2017-08-22T06:05:39.512Z,86.64
2017-08-22T06:06:39.526Z,86.85
2017-08-22T06:07:39.548Z,87.77
2017-08-22T06:08:39.669Z,87.00
2017-08-22T06:09:39.616Z,87.46
2017-08-22T06:10:39.591Z,87.02
2017-08-22T07:04:47.257Z,79.18
2017-08-22T07:05:18.534Z,79.11
2017-08-22T07:06:10.804Z,79.05
2017-08-22T07:06:49.853Z,80.46
2017-08-22T07:07:49.874Z,77.67
2017-08-22T07:08:49.995Z,78.30
2017-08-22T07:10:10.801Z,77.77
2017-08-22T07:10:49.938Z,78.95
2017-08-22T07:11:49.854Z,77.87
2017-08-22T07:13:10.667Z,77.66
2017-08-22T07:13:49.864Z,75.53
2017-08-22T07:14:49.962Z,75.75
2017-08-22T07:15:49.927Z,75.95
2017-08-22T07:17:10.809Z,76.66
2017-08-22T07:17:49.902Z,78.50
2017-08-22T07:18:49.877Z,77.41
2017-08-22T07:19:49.966Z,77.04
2017-08-22T07:21:10.746Z,79.30
2017-08-22T07:24:53.333Z,77.13
2017-08-22T07:25:24.661Z,76.72
2017-08-22T07:26:23.112Z,76.76
2017-08-22T07:26:54.324Z,76.76
2017-08-22T07:27:49.941Z,76.64
2017-08-22T07:29:10.801Z,77.40
2017-08-22T07:29:49.917Z,76.80
2017-08-22T07:30:49.952Z,74.44
2017-08-22T07:31:49.977Z,75.62
2017-08-22T07:33:10.827Z,75.61
2017-08-22T07:33:50.017Z,74.67
2017-08-22T07:34:49.962Z,72.70
2017-08-22T07:35:49.997Z,74.69
2017-08-22T07:37:10.873Z,73.88
2017-08-22T07:37:49.957Z,73.32
2017-08-22T07:38:49.978Z,74.97
2017-08-22T07:40:10.836Z,72.45
2017-08-22T07:40:50.010Z,72.16
2017-08-22T07:41:50.040Z,74.46
2017-08-22T07:42:49.984Z,73.66
2017-08-22T07:44:10.833Z,74.45
2017-08-22T07:44:50.031Z,73.74
2017-08-22T07:45:50.089Z,73.46
2017-08-22T07:46:50.023Z,72.79
2017-08-22T07:48:10.905Z,73.10
2017-08-22T07:48:50.001Z,74.40
2017-08-22T07:49:50.055Z,74.47
2017-08-22T07:50:49.991Z,74.19
2017-08-22T07:52:13.775Z,74.35
2017-08-22T07:52:50.075Z,71.46
2017-08-22T07:53:50.251Z,72.17
2017-08-22T07:55:11.011Z,73.16
2017-08-22T07:55:50.125Z,71.29
2017-08-22T07:56:50.004Z,71.93
2017-08-22T07:57:50.069Z,72.71
2017-08-22T07:59:10.851Z,71.24
2017-08-22T07:59:49.993Z,73.01
2017-08-22T08:00:50.118Z,72.68
2017-08-22T08:01:50.041Z,71.50
2017-08-22T08:03:10.873Z,73.69
2017-08-22T08:03:50.082Z,73.07
2017-08-22T08:04:50.031Z,71.69
2017-08-22T08:05:50.083Z,72.09
2017-08-22T08:07:10.953Z,69.81
2017-08-22T08:07:50.059Z,70.80
2017-08-22T08:08:50.099Z,70.04
2017-08-22T08:09:50.090Z,69.72
2017-08-22T08:11:10.962Z,69.23
2017-08-22T08:11:50.160Z,69.13
2017-08-22T08:12:50.101Z,70.77
2017-08-22T08:13:50.130Z,70.86
2017-08-22T08:15:10.905Z,71.76
2017-08-22T08:15:50.083Z,71.37
2017-08-22T08:16:51.205Z,72.20
2017-08-22T08:17:50.170Z,72.34
2017-08-22T08:19:10.945Z,73.20
2017-08-22T08:19:50.127Z,71.07
2017-08-22T08:20:50.128Z,72.75
2017-08-22T08:22:10.901Z,73.00
2017-08-22T08:22:50.213Z,71.97
2017-08-22T08:23:50.112Z,70.29
2017-08-22T08:24:50.190Z,69.69
2017-08-22T08:26:10.897Z,67.29
2017-08-22T08:26:50.134Z,67.49
2017-08-22T08:27:50.208Z,72.55
2017-08-22T08:28:50.173Z,67.74
2017-08-22T08:30:10.908Z,67.82
2017-08-22T08:30:50.196Z,66.20
2017-08-22T08:31:50.154Z,65.75
2017-08-22T08:32:50.282Z,67.06
2017-08-22T08:34:10.932Z,66.25
2017-08-22T08:34:50.284Z,66.84
2017-08-22T08:35:50.163Z,66.08
2017-08-22T08:37:10.930Z,66.74
2017-08-22T08:37:50.235Z,65.78
2017-08-22T08:38:50.245Z,64.71
2017-08-22T08:39:50.189Z,64.72
2017-08-22T08:41:10.946Z,65.47
2017-08-22T08:41:50.173Z,63.69
2017-08-22T08:42:50.346Z,65.14
2017-08-22T08:43:50.198Z,63.57
2017-08-22T08:45:11.186Z,63.22
2017-08-22T08:45:50.214Z,65.47
2017-08-22T08:46:50.282Z,64.30
2017-08-22T08:47:50.285Z,64.08
2017-08-22T08:49:11.165Z,64.31
2017-08-22T08:49:50.179Z,63.52
2017-08-22T08:50:50.198Z,62.55
2017-08-22T08:52:10.921Z,62.08
2017-08-22T08:52:50.280Z,62.43
2017-08-22T08:53:50.179Z,61.26
2017-08-22T08:55:10.905Z,63.22
2017-08-22T08:55:50.158Z,61.95
2017-08-22T08:56:50.247Z,62.58
2017-08-22T08:57:50.184Z,61.93
2017-08-22T08:59:11.561Z,65.91
2017-08-22T08:59:50.205Z,63.23
2017-08-22T09:00:50.297Z,63.06
2017-08-22T09:01:50.247Z,63.82
2017-08-22T09:03:11.016Z,63.68
2017-08-22T09:03:50.234Z,60.75
2017-08-22T09:04:50.237Z,65.01
2017-08-22T09:05:50.288Z,59.34
2017-08-22T09:07:11.047Z,57.47
2017-08-22T09:07:50.289Z,57.75
2017-08-22T09:08:50.297Z,59.45
2017-08-22T09:09:50.208Z,59.93
2017-08-22T09:11:11.065Z,61.52
2017-08-22T09:11:50.273Z,59.04
2017-08-22T09:12:50.269Z,59.55
2017-08-22T09:13:50.293Z,58.57
2017-08-22T09:15:11.052Z,58.66
2017-08-22T09:15:50.269Z,58.74
2017-08-22T09:16:50.276Z,55.55
2017-08-22T09:17:50.243Z,58.14
2017-08-22T09:19:11.144Z,57.99
2017-08-22T09:19:50.310Z,57.57
2017-08-22T09:20:50.288Z,54.35
2017-08-22T09:21:50.272Z,57.26
2017-08-22T09:23:11.147Z,54.12
2017-08-22T09:23:50.243Z,58.08
2017-08-22T09:24:50.348Z,60.15
2017-08-22T09:26:11.120Z,54.87
2017-08-22T09:26:50.684Z,56.05
2017-08-22T09:27:50.315Z,56.80
2017-08-22T09:29:11.260Z,57.02
2017-08-22T09:29:50.262Z,60.84
2017-08-22T09:30:50.365Z,61.73
2017-08-22T09:31:50.322Z,59.25
2017-08-22T09:33:11.154Z,62.19
2017-08-22T09:33:50.345Z,61.92
2017-08-22T09:34:50.323Z,62.82
2017-08-22T09:35:50.292Z,61.44
2017-08-22T09:37:11.108Z,62.18
2017-08-22T09:37:50.372Z,57.86
2017-08-22T09:38:50.394Z,59.22
2017-08-22T09:39:50.315Z,57.33
2017-08-22T09:41:11.229Z,55.90
2017-08-22T09:41:50.318Z,58.04
2017-08-22T09:42:50.701Z,57.78
2017-08-22T09:43:50.359Z,58.90
2017-08-22T09:45:11.051Z,56.98
2017-08-22T09:45:50.371Z,59.37
2017-08-22T09:46:50.399Z,58.62
2017-08-22T09:48:11.444Z,58.72
2017-08-22T09:48:50.531Z,61.45
2017-08-22T09:49:50.488Z,62.90
2017-08-22T09:50:50.427Z,61.92
2017-08-22T09:52:11.091Z,64.23
2017-08-22T09:52:50.374Z,62.21
2017-08-22T09:53:50.451Z,62.50
2017-08-22T09:54:50.345Z,61.43
2017-08-22T09:56:11.164Z,59.08
2017-08-22T09:56:50.398Z,56.27
2017-08-22T09:57:50.338Z,52.67
2017-08-22T09:58:50.447Z,54.86
2017-08-22T10:00:11.177Z,54.79
2017-08-22T10:00:50.534Z,52.84
2017-08-22T10:01:50.423Z,50.21
2017-08-22T10:02:50.416Z,50.18
2017-08-22T10:04:11.185Z,50.09
2017-08-22T10:04:49.059Z,50.09
2017-08-22T10:05:40.996Z,50.58
2017-08-22T10:06:12.275Z,53.52
2017-08-22T10:07:00.216Z,51.28
2017-08-22T10:08:11.093Z,53.92
2017-08-22T10:08:50.433Z,52.80
2017-08-22T10:09:50.542Z,53.01
2017-08-22T10:10:50.417Z,51.87
2017-08-22T10:12:11.375Z,48.89
2017-08-22T10:12:50.401Z,50.04
2017-08-22T10:13:50.386Z,50.85
2017-08-22T10:14:50.415Z,47.09
2017-08-22T10:16:11.276Z,50.38
2017-08-22T10:16:50.552Z,50.71
2017-08-22T10:17:50.397Z,49.17
2017-08-22T10:18:50.479Z,49.67
2017-08-22T10:20:11.375Z,50.48
2017-08-22T10:20:50.417Z,47.84
2017-08-22T10:21:50.548Z,48.22
2017-08-22T10:22:50.486Z,48.29
2017-08-22T10:24:11.270Z,49.54
2017-08-22T10:24:50.518Z,49.45
2017-08-22T10:25:50.497Z,48.24
2017-08-22T10:26:48.896Z,48.24
2017-08-22T10:27:20.134Z,53.95
2017-08-22T10:28:12.342Z,50.34
2017-08-22T10:29:11.302Z,48.89
2017-08-22T10:29:50.467Z,51.30
2017-08-22T10:30:50.475Z,45.42
2017-08-22T10:31:50.457Z,47.00
2017-08-22T10:33:11.276Z,46.13
2017-08-22T10:33:50.456Z,44.52
2017-08-22T10:34:50.481Z,43.60
2017-08-22T10:35:50.505Z,46.36
2017-08-22T10:37:11.275Z,43.13
2017-08-22T10:37:50.556Z,46.14
2017-08-22T10:38:50.567Z,43.58
2017-08-22T10:40:11.395Z,44.12
2017-08-22T10:40:50.573Z,46.00
2017-08-22T10:41:50.491Z,43.76
2017-08-22T10:42:50.542Z,43.82
2017-08-22T10:44:11.322Z,42.16
2017-08-22T10:44:50.528Z,46.75
2017-08-22T10:45:50.554Z,42.00
2017-08-22T10:46:50.521Z,43.01
2017-08-22T10:48:11.348Z,46.04
2017-08-22T10:48:50.565Z,47.04
2017-08-22T10:49:50.507Z,46.72
2017-08-22T10:51:11.394Z,47.53
2017-08-22T10:51:50.570Z,45.70
2017-08-22T10:52:50.592Z,42.54
2017-08-22T10:53:50.594Z,43.09
2017-08-22T10:55:11.413Z,42.59
2017-08-22T10:55:50.510Z,42.91
2017-08-22T10:56:50.615Z,42.96
2017-08-22T10:57:50.555Z,45.40
2017-08-22T10:59:11.403Z,47.03
2017-08-22T10:59:50.573Z,49.05
2017-08-22T11:00:50.697Z,49.44
2017-08-22T11:01:50.612Z,48.36
2017-08-22T11:03:11.458Z,47.67
2017-08-22T11:03:50.558Z,48.96
2017-08-22T11:04:50.663Z,49.51
2017-08-22T11:05:50.622Z,48.75
2017-08-22T11:07:11.298Z,47.90
2017-08-22T11:07:50.576Z,49.43
2017-08-22T11:08:50.639Z,47.58
2017-08-22T11:09:50.630Z,49.52
2017-08-22T11:11:11.365Z,50.74
2017-08-22T11:11:50.574Z,50.40
2017-08-22T11:12:50.648Z,50.07
2017-08-22T11:13:50.631Z,49.36
2017-08-22T11:15:11.355Z,51.07
2017-08-22T11:15:50.695Z,52.17
2017-08-22T11:16:50.641Z,52.86
2017-08-22T11:17:50.634Z,52.48
2017-08-22T11:19:11.397Z,52.18
2017-08-22T11:19:50.571Z,53.23
2017-08-22T11:20:50.785Z,53.70
2017-08-22T11:21:50.580Z,55.94
2017-08-22T11:23:11.600Z,54.81
2017-08-22T11:23:50.657Z,55.56
2017-08-22T11:24:50.707Z,52.56
2017-08-22T11:26:11.586Z,55.01
2017-08-22T11:26:49.194Z,55.01
2017-08-22T11:27:41.126Z,51.22
2017-08-22T11:28:12.293Z,52.65
2017-08-22T11:29:00.175Z,51.21
2017-08-22T11:30:11.466Z,51.64
2017-08-22T11:30:50.742Z,50.84
2017-08-22T11:31:50.638Z,52.41
2017-08-22T11:33:11.577Z,53.07
2017-08-22T11:33:50.610Z,55.29
2017-08-22T11:34:50.701Z,54.32
2017-08-22T11:35:50.712Z,52.85
2017-08-22T11:37:11.529Z,47.21
2017-08-22T11:37:50.675Z,50.82
2017-08-22T11:38:50.753Z,47.82
2017-08-22T11:39:50.686Z,48.52
2017-08-22T11:41:11.540Z,49.79
2017-08-22T11:41:50.734Z,48.15
2017-08-22T11:42:50.810Z,47.48
2017-08-22T11:43:50.647Z,50.78
2017-08-22T11:45:11.509Z,50.46
2017-08-22T11:45:50.680Z,52.27
2017-08-22T11:46:50.898Z,52.62
2017-08-22T11:47:50.727Z,51.30
2017-08-22T11:49:11.681Z,54.38
2017-08-22T11:49:50.655Z,49.32
2017-08-22T11:50:50.760Z,51.39
2017-08-22T11:51:50.801Z,49.35
2017-08-22T11:53:11.428Z,50.51
2017-08-22T11:53:50.767Z,52.72
2017-08-22T11:54:50.839Z,51.20
2017-08-22T11:55:50.715Z,49.69
2017-08-22T11:57:11.569Z,50.06
2017-08-22T11:57:50.747Z,48.83
2017-08-22T11:58:50.716Z,48.35
2017-08-22T11:59:50.764Z,46.21
2017-08-22T12:01:11.697Z,49.15
2017-08-22T12:01:50.815Z,48.69
2017-08-22T12:03:44.226Z,50.27
2017-08-22T12:04:15.519Z,51.39
2017-08-22T12:05:13.935Z,48.74
2017-08-22T12:06:11.704Z,49.70
2017-08-22T12:06:50.812Z,44.09
2017-08-22T12:07:50.766Z,47.53
2017-08-22T12:08:50.816Z,45.42
2017-08-22T12:10:11.592Z,44.79
2017-08-22T12:10:50.885Z,48.09
2017-08-22T12:11:51.253Z,48.85
2017-08-22T12:12:50.812Z,49.28
2017-08-22T12:14:11.574Z,46.56
2017-08-22T12:14:50.845Z,49.32
2017-08-22T12:15:50.967Z,49.57
2017-08-22T12:16:50.884Z,50.78
2017-08-22T12:18:11.764Z,50.02
2017-08-22T12:18:50.991Z,52.73
2017-08-22T12:19:51.189Z,53.38
2017-08-22T12:20:50.914Z,52.59
2017-08-22T12:22:11.610Z,53.66
2017-08-22T12:22:50.943Z,52.87
2017-08-22T12:23:50.854Z,52.65
2017-08-22T12:25:11.622Z,52.08
2017-08-22T12:25:50.801Z,54.03
2017-08-22T12:26:50.899Z,53.61
2017-08-22T12:27:50.789Z,48.62
2017-08-22T12:29:11.850Z,50.70
2017-08-22T12:29:50.828Z,50.33
2017-08-22T12:30:50.864Z,54.54
2017-08-22T12:31:50.872Z,53.25
2017-08-22T12:33:11.754Z,52.75
2017-08-22T12:33:50.844Z,52.82
2017-08-22T12:34:50.872Z,50.44
2017-08-22T12:36:11.658Z,51.96
2017-08-22T12:36:51.027Z,54.46
2017-08-22T12:37:50.837Z,52.34
2017-08-22T12:38:51.051Z,52.95
2017-08-22T12:40:11.676Z,52.95
2017-08-22T12:40:50.999Z,52.50
2017-08-22T12:41:50.867Z,50.59
2017-08-22T12:42:51.047Z,50.10
2017-08-22T12:44:11.737Z,48.84
2017-08-22T12:44:50.875Z,52.96
2017-08-22T12:45:51.057Z,54.60
2017-08-22T12:46:51.105Z,52.85
2017-08-22T12:48:11.684Z,51.15
2017-08-22T12:48:51.090Z,53.43
2017-08-22T12:49:50.844Z,52.02
2017-08-22T12:50:51.138Z,52.68
2017-08-22T12:52:11.646Z,52.88
2017-08-22T12:52:51.177Z,51.58
2017-08-22T12:53:50.888Z,53.52
2017-08-22T12:54:51.161Z,56.53
2017-08-22T12:56:11.742Z,51.74
2017-08-22T12:56:51.114Z,53.24
2017-08-22T12:57:50.942Z,52.40
2017-08-22T12:59:11.670Z,52.40
2017-08-22T12:59:50.859Z,54.77
2017-08-22T13:00:50.952Z,49.90
2017-08-22T13:01:50.965Z,53.12
2017-08-22T13:03:11.970Z,52.97
2017-08-22T13:03:50.948Z,54.39
2017-08-22T13:04:50.956Z,53.75
2017-08-22T13:06:11.685Z,50.23
2017-08-22T13:06:50.943Z,51.37
2017-08-22T13:07:50.908Z,51.92
2017-08-22T13:08:50.927Z,51.86
2017-08-22T13:10:11.750Z,53.96
2017-08-22T13:10:50.898Z,50.46
2017-08-22T13:11:50.960Z,49.86
2017-08-22T13:12:50.973Z,49.65
2017-08-22T13:14:11.738Z,51.43
2017-08-22T13:14:50.948Z,54.22
2017-08-22T13:15:50.976Z,51.63
2017-08-22T13:16:51.283Z,52.81
2017-08-22T13:18:11.669Z,51.16
2017-08-22T13:18:50.939Z,50.13
2017-08-22T13:19:51.049Z,50.74
2017-08-22T13:20:50.951Z,51.37
2017-08-22T13:22:12.107Z,49.61
2017-08-22T13:22:51.272Z,49.02
2017-08-22T13:23:50.977Z,52.23
2017-08-22T13:25:11.820Z,51.21
2017-08-22T13:25:51.042Z,53.01
2017-08-22T13:26:51.011Z,53.40
2017-08-22T13:27:50.978Z,54.05
2017-08-22T13:29:11.786Z,52.81
2017-08-22T13:29:51.030Z,54.61
2017-08-22T13:30:51.211Z,56.17
2017-08-22T13:31:50.985Z,53.80
2017-08-22T13:33:11.814Z,54.01
2017-08-22T13:33:50.999Z,57.01
2017-08-22T13:34:51.047Z,55.53
2017-08-22T13:35:51.052Z,54.86
2017-08-22T18:52:43.235Z,80.99
2017-08-22T18:53:41.319Z,80.82
2017-08-22T18:54:42.208Z,80.43
2017-08-22T18:55:41.776Z,80.78
2017-08-22T18:56:41.805Z,80.94
2017-08-22T18:57:41.714Z,81.23
2017-08-22T18:58:41.760Z,81.07